TAF SKPE
SKPE 090430Z 0906/1006 11006KT 9999 SCT015 TEMPO 0919/0924 SCT015CB TX28/0920Z TN18/0910Z=
METAR SKPE
SKPE 080500Z 08008KT 9999 FEW012 SCT080 21/18 Q1016 RMK A3002=
SKPE 080000Z 32004KT 9999 FEW020 24/18 Q1014 RMK A2996=
SKPE 062300Z 26003KT 9999 SCT020TCU 25/18 Q1015 RMK TCU/SE A2998=
SKPE 061700Z 21004KT 9999 SCT015TCU SCT080 23/18 Q1018 RMK TCU E/SE A3007=
WC SKPE
WS SKPE
WV SKPE